Time;durP1;ratioP1;P1;durP2;ratioP2;P2;SDS_P1;SDS_P2;PMS_P1;PMS_P2;Temp;Humidity;BMP_temperature;BMP_pressure;BME280_temperature;BME280_humidity;BME280_pressure;Samples;Min_cycle;Max_cycle;Signal;HPM_P1;HPM_P2
2022/01/16 00:04:06;;;;;;;70.38;32.47;;;2.80;99.90;;;;;;4990559;28;20049;-65
2022/01/16 00:04:55;;;;;;;70.85;32.80;;;2.80;99.90;;;;;;4970134;28;20080;-65
2022/01/16 00:07:21;;;;;;;70.78;32.83;;;2.80;99.90;;;;;;4959690;28;20512;-65
2022/01/16 00:09:47;;;;;;;76.60;34.85;;;2.80;99.90;;;;;;4959468;28;20584;-65
2022/01/16 00:12:14;;;;;;;77.55;34.72;;;2.80;99.90;;;;;;4975600;28;20047;-64
2022/01/16 00:14:39;;;;;;;74.97;33.47;;;2.80;99.90;;;;;;4962764;28;20899;-65
2022/01/16 00:17:05;;;;;;;78.28;35.92;;;2.80;99.90;;;;;;4981847;28;20128;-65
2022/01/16 00:19:31;;;;;;;81.53;36.55;;;2.80;99.90;;;;;;4986498;28;20092;-64
2022/01/16 00:21:58;;;;;;;74.75;35.28;;;2.80;99.90;;;;;;4969025;28;20337;-65
2022/01/16 00:24:23;;;;;;;73.65;33.97;;;2.80;99.90;;;;;;4962624;28;20048;-65
2022/01/16 00:26:49;;;;;;;74.95;35.15;;;2.80;99.90;;;;;;4973749;28;20042;-64
2022/01/16 00:29:15;;;;;;;63.97;29.75;;;2.80;99.90;;;;;;4959208;28;20370;-64
2022/01/16 00:31:41;;;;;;;72.75;34.33;;;2.70;99.90;;;;;;4973847;28;20091;-64
2022/01/16 00:34:08;;;;;;;67.25;30.52;;;2.70;99.90;;;;;;4982656;28;20077;-65
2022/01/16 00:36:34;;;;;;;76.43;34.10;;;2.70;99.90;;;;;;4963114;28;20042;-65
2022/01/16 00:39:00;;;;;;;74.03;33.13;;;2.70;99.90;;;;;;4964911;28;20158;-64
2022/01/16 00:41:26;;;;;;;72.15;34.15;;;2.70;99.90;;;;;;4972238;28;20054;-65
2022/01/16 00:43:53;;;;;;;82.80;37.45;;;2.70;99.90;;;;;;4979940;28;20125;-65
2022/01/16 00:46:20;;;;;;;70.28;32.72;;;2.70;99.90;;;;;;5001646;23;20025;-60
2022/01/16 00:48:46;;;;;;;73.40;32.50;;;2.70;99.90;;;;;;5010341;28;20395;-60
2022/01/16 00:51:13;;;;;;;79.65;34.63;;;2.70;99.90;;;;;;4974890;28;20229;-60
2022/01/16 00:53:39;;;;;;;74.18;33.08;;;2.70;99.90;;;;;;4983927;28;20740;-60
2022/01/16 00:56:06;;;;;;;70.00;32.88;;;2.80;99.90;;;;;;4980240;28;20057;-60
2022/01/16 00:58:32;;;;;;;77.38;34.40;;;2.80;99.90;;;;;;4974422;28;20065;-60
2022/01/16 01:00:58;;;;;;;83.13;35.58;;;2.80;99.90;;;;;;4978594;28;20039;-60
2022/01/16 01:03:25;;;;;;;79.53;32.40;;;2.80;99.90;;;;;;4991374;28;20125;-60
2022/01/16 01:05:51;;;;;;;77.57;33.50;;;2.70;99.90;;;;;;4978374;28;20038;-60
2022/01/16 01:08:17;;;;;;;71.93;33.20;;;2.80;99.90;;;;;;4992061;23;20107;-59
2022/01/16 01:10:49;;;;;;;79.38;32.40;;;2.80;99.90;;;;;;4970327;28;20042;-55
2022/01/16 01:15:49;;;;;;;81.53;35.17;;;2.80;99.90;;;;;;4988334;28;20050;-56
2022/01/16 01:18:15;;;;;;;86.57;36.15;;;2.80;99.90;;;;;;4969179;28;20057;-55
2022/01/16 01:20:43;;;;;;;85.68;36.15;;;2.80;99.90;;;;;;4988458;28;20038;-57
2022/01/16 01:23:12;;;;;;;88.97;34.63;;;2.80;99.90;;;;;;4979000;28;20042;-57
2022/01/16 01:25:39;;;;;;;89.25;37.92;;;2.80;99.90;;;;;;4974617;28;20395;-59
2022/01/16 01:28:07;;;;;;;81.47;35.05;;;2.80;99.90;;;;;;4980383;28;20682;-56
2022/01/16 01:30:33;;;;;;;87.57;36.80;;;2.80;99.90;;;;;;4987790;28;20086;-57
2022/01/16 01:32:59;;;;;;;101.13;37.97;;;2.80;99.90;;;;;;4997112;28;20038;-56
2022/01/16 01:35:25;;;;;;;93.13;36.15;;;2.80;99.90;;;;;;4967800;28;20049;-57
2022/01/16 01:37:51;;;;;;;92.50;37.55;;;2.80;99.90;;;;;;4989078;28;20034;-55
2022/01/16 01:40:25;;;;;;;105.18;38.10;;;2.80;99.90;;;;;;4958852;28;20107;-56
2022/01/16 01:51:32;;;;;;;113.75;43.60;;;2.80;99.90;;;;;;4976363;28;20050;-57
2022/01/16 01:54:00;;;;;;;109.05;40.67;;;2.80;99.90;;;;;;4976756;28;20069;-56
2022/01/16 01:56:26;;;;;;;109.20;39.92;;;2.80;99.90;;;;;;4965270;28;20078;-56
2022/01/16 01:58:56;;;;;;;111.90;42.22;;;2.80;99.90;;;;;;4960933;28;21304;-57
2022/01/16 02:01:22;;;;;;;123.97;43.38;;;2.80;99.90;;;;;;4965866;28;20046;-57
2022/01/16 02:03:49;;;;;;;120.80;44.28;;;2.80;99.90;;;;;;4978756;28;20238;-58
2022/01/16 02:06:15;;;;;;;126.03;43.47;;;2.80;99.90;;;;;;4983524;28;20071;-58
2022/01/16 02:08:53;;;;;;;124.20;43.78;;;2.90;99.90;;;;;;4964629;28;20045;-56
2022/01/16 02:11:24;;;;;;;123.25;42.65;;;2.90;99.90;;;;;;4976557;28;20038;-58
2022/01/16 02:14:00;;;;;;;123.32;42.10;;;2.90;99.90;;;;;;4960081;28;20070;-57
2022/01/16 02:35:43;;;;;;;125.22;44.80;;;3.00;99.90;;;;;;4966819;28;20050;-55
2022/01/16 02:38:10;;;;;;;127.68;42.22;;;3.00;99.90;;;;;;4974408;28;20053;-57
2022/01/16 02:40:38;;;;;;;134.07;42.58;;;3.00;99.90;;;;;;4957360;28;20436;-56
2022/01/16 02:43:05;;;;;;;133.68;42.65;;;3.00;99.90;;;;;;4972962;28;20056;-57
2022/01/16 02:45:32;;;;;;;131.25;44.85;;;3.00;99.90;;;;;;4965084;28;20046;-58
2022/01/16 02:48:02;;;;;;;159.27;48.60;;;3.10;99.90;;;;;;4997144;28;20135;-56
2022/01/16 02:50:28;;;;;;;125.47;43.67;;;3.10;99.90;;;;;;4984487;28;20122;-57
2022/01/16 02:52:55;;;;;;;135.18;43.05;;;3.10;99.90;;;;;;4975427;28;20500;-57
2022/01/16 02:55:22;;;;;;;126.28;42.90;;;3.10;99.90;;;;;;4977698;28;20533;-57
2022/01/16 02:57:54;;;;;;;127.47;42.58;;;3.10;99.90;;;;;;4974459;28;20069;-57
2022/01/16 03:00:21;;;;;;;130.63;44.78;;;3.10;99.90;;;;;;4974973;28;20644;-58
2022/01/16 03:02:48;;;;;;;142.32;43.25;;;3.10;99.90;;;;;;4972360;28;20094;-56
2022/01/16 03:05:14;;;;;;;138.23;44.08;;;3.10;99.90;;;;;;4981445;28;20489;-58
2022/01/16 03:07:41;;;;;;;135.55;44.47;;;3.10;99.90;;;;;;4991244;28;20038;-57
2022/01/16 03:12:39;;;;;;;140.88;44.75;;;3.10;99.90;;;;;;4973215;28;20088;-57
2022/01/16 03:15:06;;;;;;;135.73;42.80;;;3.10;99.90;;;;;;4961051;28;20141;-57
2022/01/16 03:21:52;;;;;;;135.65;42.67;;;3.10;99.90;;;;;;4979324;28;20572;-57
2022/01/16 03:23:20;;;;;;;136.82;42.78;;;3.10;99.90;;;;;;5003242;28;20124;-56
2022/01/16 03:25:46;;;;;;;130.52;42.53;;;3.10;99.90;;;;;;4967863;28;20037;-57
2022/01/16 03:28:13;;;;;;;160.18;47.13;;;3.10;99.90;;;;;;4962262;28;20059;-56
2022/01/16 03:30:39;;;;;;;163.32;47.70;;;3.10;99.90;;;;;;4977922;28;20551;-57
2022/01/16 03:33:05;;;;;;;144.18;45.63;;;3.20;99.90;;;;;;4992693;28;20041;-58
2022/01/16 03:35:31;;;;;;;150.02;45.67;;;3.20;99.90;;;;;;4996125;28;20038;-57
2022/01/16 03:37:57;;;;;;;150.02;46.88;;;3.20;99.90;;;;;;4982639;28;20456;-56
2022/01/16 03:40:24;;;;;;;160.90;49.10;;;3.20;99.90;;;;;;4990437;28;20038;-57
2022/01/16 03:42:50;;;;;;;157.75;46.55;;;3.20;99.90;;;;;;4972387;28;20050;-56
2022/01/16 03:45:16;;;;;;;157.18;46.63;;;3.20;99.90;;;;;;4958542;28;20073;-58
2022/01/16 03:47:42;;;;;;;172.30;49.08;;;3.20;99.90;;;;;;5003690;28;20496;-57
2022/01/16 03:50:09;;;;;;;152.15;47.97;;;3.30;99.90;;;;;;4974226;28;20045;-58
2022/01/16 03:52:34;;;;;;;165.70;48.05;;;3.30;99.90;;;;;;4971818;28;20060;-57
2022/01/16 03:55:02;;;;;;;172.82;49.58;;;3.30;99.90;;;;;;4969392;28;20050;-57
2022/01/16 03:57:28;;;;;;;161.23;50.95;;;3.30;99.90;;;;;;4977689;28;20053;-56
2022/01/16 03:59:54;;;;;;;171.23;50.83;;;3.30;99.90;;;;;;4968483;28;20039;-57
2022/01/16 04:02:20;;;;;;;160.13;47.92;;;3.30;99.90;;;;;;4974592;28;20169;-56
2022/01/16 04:04:46;;;;;;;159.10;47.08;;;3.40;99.90;;;;;;4970485;28;20137;-58
2022/01/16 04:07:17;;;;;;;167.20;50.67;;;3.40;99.90;;;;;;4972051;28;20070;-57
2022/01/16 04:09:43;;;;;;;168.65;51.20;;;3.40;99.90;;;;;;4961997;28;20173;-57
2022/01/16 04:12:10;;;;;;;161.82;51.05;;;3.40;99.90;;;;;;4972531;28;21960;-58
2022/01/16 04:17:20;;;;;;;162.60;49.15;;;3.50;99.90;;;;;;4971443;28;20701;-57
2022/01/16 04:19:46;;;;;;;171.55;51.05;;;3.50;99.90;;;;;;4972764;28;20049;-57
2022/01/16 04:22:13;;;;;;;171.55;52.13;;;3.50;99.90;;;;;;4973500;28;20039;-57
2022/01/16 04:24:40;;;;;;;154.48;49.15;;;3.50;99.90;;;;;;4983856;28;20046;-57
2022/01/16 04:27:10;;;;;;;158.48;49.60;;;3.50;99.90;;;;;;4981892;28;20272;-57
2022/01/16 04:29:35;;;;;;;169.27;52.72;;;3.60;99.90;;;;;;4954934;28;20053;-57
2022/01/16 04:32:01;;;;;;;157.90;52.60;;;3.60;99.90;;;;;;4984109;28;20042;-56
2022/01/16 04:34:27;;;;;;;156.40;50.33;;;3.60;99.90;;;;;;4984205;28;20046;-57
2022/01/16 04:36:53;;;;;;;165.50;53.17;;;3.60;99.90;;;;;;4954192;28;20447;-57
2022/01/16 04:39:21;;;;;;;163.63;51.70;;;3.60;99.90;;;;;;4968356;28;20152;-56
2022/01/16 04:44:32;;;;;;;161.25;52.65;;;3.70;99.90;;;;;;4977478;28;20038;-57
2022/01/16 04:46:58;;;;;;;182.65;52.83;;;3.70;99.90;;;;;;4979736;28;20092;-58
2022/01/16 04:49:24;;;;;;;187.90;54.45;;;3.70;99.90;;;;;;4967395;28;20579;-58
2022/01/16 04:51:50;;;;;;;167.52;53.90;;;3.80;99.90;;;;;;4978069;28;20057;-57
2022/01/16 04:54:16;;;;;;;191.50;55.47;;;3.80;99.90;;;;;;4975213;28;20057;-57
2022/01/16 04:56:42;;;;;;;173.93;54.65;;;3.80;99.90;;;;;;4989071;28;20031;-56
2022/01/16 04:59:08;;;;;;;159.90;51.45;;;3.80;99.90;;;;;;4971959;28;20497;-57
2022/01/16 05:01:34;;;;;;;181.48;54.72;;;3.80;99.90;;;;;;4972936;28;20057;-58
2022/01/16 05:04:00;;;;;;;195.57;57.22;;;3.80;99.90;;;;;;4962140;28;20034;-57
2022/01/16 05:06:25;;;;;;;190.30;55.92;;;3.90;99.90;;;;;;4974968;28;20046;-57
2022/01/16 05:08:51;;;;;;;205.75;58.95;;;4.00;99.90;;;;;;4973586;28;20042;-56
2022/01/16 05:11:24;;;;;;;203.35;58.33;;;3.90;99.90;;;;;;4995926;28;20461;-56
2022/01/16 05:19:06;;;;;;;206.93;62.33;;;4.00;99.90;;;;;;4973461;28;21777;-57
2022/01/16 05:21:32;;;;;;;206.68;61.90;;;4.00;99.90;;;;;;4980822;28;20041;-57
2022/01/16 05:23:57;;;;;;;204.10;60.40;;;4.00;99.90;;;;;;4972415;28;20038;-58
2022/01/16 05:26:28;;;;;;;204.65;59.50;;;4.10;99.90;;;;;;4978425;28;20041;-58
2022/01/16 05:28:55;;;;;;;199.82;58.05;;;4.10;99.90;;;;;;4970007;28;20512;-56
2022/01/16 05:31:21;;;;;;;194.32;62.72;;;4.10;99.90;;;;;;4962066;28;20307;-56
2022/01/16 05:33:47;;;;;;;194.38;60.53;;;4.20;99.90;;;;;;4977620;28;20121;-57
2022/01/16 05:36:13;;;;;;;199.05;61.67;;;4.20;99.90;;;;;;4973293;28;22301;-57
2022/01/16 05:38:38;;;;;;;186.82;59.22;;;4.20;99.90;;;;;;4973676;28;20080;-58
2022/01/16 05:41:04;;;;;;;191.55;61.28;;;4.30;99.90;;;;;;4968087;28;20050;-57
2022/01/16 05:43:30;;;;;;;169.95;57.92;;;4.30;99.90;;;;;;4967839;28;20027;-56
2022/01/16 05:45:56;;;;;;;181.95;59.53;;;4.30;99.90;;;;;;4972200;28;20045;-58
2022/01/16 05:48:21;;;;;;;164.40;57.28;;;4.40;99.90;;;;;;4970428;28;20066;-59
2022/01/16 05:50:47;;;;;;;160.23;55.08;;;4.30;99.90;;;;;;4976060;28;20051;-55
2022/01/16 05:53:13;;;;;;;179.43;59.67;;;4.40;99.90;;;;;;4959167;28;20045;-57
2022/01/16 05:55:39;;;;;;;173.88;60.03;;;4.50;99.90;;;;;;4986500;28;20224;-58
2022/01/16 05:58:09;;;;;;;162.20;56.25;;;4.50;99.90;;;;;;4949004;28;20046;-57
2022/01/16 06:00:37;;;;;;;148.65;55.33;;;4.50;99.90;;;;;;4974461;28;20254;-58
2022/01/16 06:03:04;;;;;;;154.68;57.83;;;4.50;99.90;;;;;;4979643;28;20387;-57
2022/01/16 06:05:30;;;;;;;173.63;57.20;;;4.60;99.90;;;;;;4965080;28;20042;-56
2022/01/16 06:07:59;;;;;;;147.63;54.45;;;4.60;99.90;;;;;;4980631;28;20046;-58
2022/01/16 06:10:25;;;;;;;149.25;57.05;;;4.60;99.90;;;;;;4973838;28;20057;-58
2022/01/16 06:12:51;;;;;;;141.30;53.53;;;4.70;99.90;;;;;;4970647;28;20493;-56
2022/01/16 06:15:19;;;;;;;140.75;55.05;;;4.70;99.90;;;;;;4973002;28;20069;-57
2022/01/16 06:17:44;;;;;;;147.02;56.38;;;4.70;99.90;;;;;;4958125;28;20568;-58
2022/01/16 06:20:10;;;;;;;135.52;53.28;;;4.70;99.90;;;;;;4986378;28;20125;-56
2022/01/16 06:22:36;;;;;;;144.80;55.58;;;4.70;99.90;;;;;;4967120;28;20038;-57
2022/01/16 06:25:01;;;;;;;136.77;53.00;;;4.70;99.90;;;;;;4979500;28;20129;-57
2022/01/16 06:27:27;;;;;;;140.65;54.08;;;4.70;99.90;;;;;;4971851;28;20042;-57
2022/01/16 06:29:53;;;;;;;123.72;52.17;;;4.80;99.90;;;;;;4958379;28;20142;-57
2022/01/16 06:32:18;;;;;;;136.70;53.22;;;4.80;99.90;;;;;;4942634;28;20042;-58
2022/01/16 06:34:44;;;;;;;132.85;52.25;;;4.80;99.90;;;;;;4972669;28;20102;-58
2022/01/16 06:37:10;;;;;;;143.65;55.28;;;4.80;99.90;;;;;;4979516;28;20050;-56
2022/01/16 06:39:36;;;;;;;127.80;53.15;;;4.80;99.90;;;;;;4960379;28;20058;-58
2022/01/16 06:42:01;;;;;;;127.38;50.65;;;4.80;99.90;;;;;;4974770;28;20038;-58
2022/01/16 06:44:27;;;;;;;129.75;53.70;;;4.80;99.90;;;;;;4976379;28;20038;-57
2022/01/16 06:46:53;;;;;;;129.45;51.92;;;4.90;99.90;;;;;;4969873;28;20033;-57
2022/01/16 06:49:18;;;;;;;127.00;52.38;;;4.90;99.90;;;;;;4976237;28;20026;-58
2022/01/16 06:51:45;;;;;;;119.07;50.42;;;4.90;99.90;;;;;;4967786;28;20074;-57
2022/01/16 06:54:11;;;;;;;127.10;50.25;;;4.90;99.90;;;;;;4975791;28;20042;-58
2022/01/16 06:56:37;;;;;;;129.25;51.05;;;4.80;99.90;;;;;;4959147;28;20548;-56
2022/01/16 06:59:02;;;;;;;115.70;50.83;;;4.90;99.90;;;;;;4958654;28;20084;-57
2022/01/16 07:01:29;;;;;;;112.90;51.25;;;4.90;99.90;;;;;;4987475;28;20412;-57
2022/01/16 07:03:54;;;;;;;116.88;50.40;;;4.90;99.90;;;;;;4986775;28;20046;-57
2022/01/16 07:06:21;;;;;;;110.78;49.80;;;5.00;99.90;;;;;;4992446;28;20053;-57
2022/01/16 07:08:47;;;;;;;112.47;48.25;;;5.00;99.90;;;;;;4967616;28;20057;-58
2022/01/16 07:11:13;;;;;;;109.32;47.45;;;5.00;99.90;;;;;;4972928;28;20467;-57
2022/01/16 07:13:39;;;;;;;106.32;47.25;;;5.00;99.90;;;;;;4963038;28;20373;-58
2022/01/16 07:16:05;;;;;;;97.18;47.30;;;5.00;99.90;;;;;;4971127;28;20072;-58
2022/01/16 07:18:31;;;;;;;95.35;44.78;;;5.00;99.90;;;;;;4978876;28;20042;-57
2022/01/16 07:20:57;;;;;;;99.05;45.50;;;5.10;99.90;;;;;;4951166;28;20508;-57
2022/01/16 07:23:23;;;;;;;93.65;43.00;;;5.10;99.90;;;;;;4978104;28;20078;-57
2022/01/16 07:25:49;;;;;;;98.45;46.92;;;5.10;99.90;;;;;;4958566;28;20141;-56
2022/01/16 07:28:15;;;;;;;87.65;42.83;;;5.10;99.90;;;;;;4961620;28;20034;-57
2022/01/16 07:30:42;;;;;;;89.95;44.42;;;5.10;99.90;;;;;;4975200;28;20042;-57
2022/01/16 07:33:09;;;;;;;78.10;40.72;;;5.20;99.90;;;;;;4972269;28;20471;-58
2022/01/16 07:35:36;;;;;;;72.32;40.55;;;5.20;99.90;;;;;;4995754;28;20550;-57
2022/01/16 07:38:02;;;;;;;80.05;41.17;;;5.20;99.90;;;;;;4974431;28;20436;-58
2022/01/16 07:40:28;;;;;;;74.13;40.17;;;5.20;99.90;;;;;;4974267;28;20049;-58
2022/01/16 07:42:55;;;;;;;74.10;40.47;;;5.20;99.90;;;;;;4975909;28;20069;-58
2022/01/16 07:45:21;;;;;;;69.95;36.47;;;5.20;99.90;;;;;;4964244;28;20035;-58
2022/01/16 07:47:46;;;;;;;70.35;38.15;;;5.20;99.90;;;;;;4985427;28;20552;-58
2022/01/16 07:50:14;;;;;;;64.18;35.53;;;5.20;99.90;;;;;;4963726;28;20060;-57
2022/01/16 07:52:40;;;;;;;76.95;38.15;;;5.20;99.90;;;;;;4970984;28;20039;-58
2022/01/16 07:55:06;;;;;;;60.53;33.08;;;5.20;99.90;;;;;;4972613;28;20179;-58
2022/01/16 07:57:32;;;;;;;60.35;33.55;;;5.20;99.90;;;;;;4970793;28;20234;-58
2022/01/16 07:59:58;;;;;;;61.92;33.08;;;5.30;99.90;;;;;;4974739;28;20049;-58
2022/01/16 08:02:24;;;;;;;55.42;31.33;;;5.30;99.90;;;;;;4970556;28;20133;-58
2022/01/16 08:04:49;;;;;;;58.65;31.27;;;5.30;99.90;;;;;;4985588;28;20038;-58
2022/01/16 08:07:15;;;;;;;51.95;29.92;;;5.30;99.90;;;;;;4966997;28;20038;-57
2022/01/16 08:09:42;;;;;;;50.22;28.92;;;5.30;99.90;;;;;;4965591;28;20053;-58
2022/01/16 08:12:08;;;;;;;59.63;31.40;;;5.30;99.90;;;;;;4959304;28;20042;-58
2022/01/16 08:14:35;;;;;;;59.35;32.42;;;5.30;99.90;;;;;;4981053;23;20056;-65
2022/01/16 08:17:01;;;;;;;52.03;30.70;;;5.40;99.90;;;;;;4980692;28;20053;-64
2022/01/16 08:19:30;;;;;;;58.05;32.00;;;5.40;99.90;;;;;;4960480;28;21137;-64
2022/01/16 08:21:56;;;;;;;56.33;29.67;;;5.40;99.90;;;;;;4988836;28;20047;-65
2022/01/16 08:24:23;;;;;;;55.13;29.95;;;5.40;99.90;;;;;;4961319;28;20399;-64
2022/01/16 08:26:49;;;;;;;56.08;30.15;;;5.40;99.90;;;;;;4957866;28;20031;-62
2022/01/16 08:29:14;;;;;;;53.47;30.13;;;5.50;99.90;;;;;;4928716;28;20107;-62
2022/01/16 08:31:40;;;;;;;56.45;30.42;;;5.50;99.90;;;;;;4936439;28;20043;-63
2022/01/16 08:34:06;;;;;;;55.85;31.23;;;5.50;99.90;;;;;;4969729;28;20039;-64
2022/01/16 08:36:32;;;;;;;55.90;31.15;;;5.50;99.90;;;;;;4951118;28;20053;-64
2022/01/16 08:38:58;;;;;;;57.90;29.50;;;5.60;99.90;;;;;;5019419;28;20372;-64
2022/01/16 08:41:24;;;;;;;61.60;30.38;;;5.50;99.90;;;;;;4950949;28;20796;-62
2022/01/16 08:43:51;;;;;;;58.53;29.92;;;5.60;99.90;;;;;;4962527;28;20104;-64
2022/01/16 08:46:17;;;;;;;56.22;28.98;;;5.60;99.90;;;;;;4946655;28;20340;-64
2022/01/16 08:48:43;;;;;;;57.55;30.50;;;5.60;99.90;;;;;;4950727;28;20137;-64
2022/01/16 08:51:09;;;;;;;50.33;27.90;;;5.70;99.90;;;;;;4977196;28;20046;-64
2022/01/16 08:53:35;;;;;;;51.53;29.02;;;5.70;99.90;;;;;;4931320;28;20049;-63
2022/01/16 08:56:01;;;;;;;47.60;27.77;;;5.80;99.90;;;;;;4946993;28;20038;-64
2022/01/16 08:58:27;;;;;;;51.00;30.30;;;5.80;99.90;;;;;;4949054;28;20046;-64
2022/01/16 09:00:53;;;;;;;53.63;28.90;;;5.80;99.90;;;;;;4950841;28;20043;-62
2022/01/16 09:03:20;;;;;;;63.80;30.70;;;5.90;99.90;;;;;;4964451;28;20042;-63
2022/01/16 09:05:46;;;;;;;51.15;28.67;;;5.90;99.90;;;;;;4954608;28;20041;-64
2022/01/16 09:08:13;;;;;;;55.22;28.38;;;6.00;99.90;;;;;;4928110;28;20090;-63
2022/01/16 09:10:41;;;;;;;52.63;29.52;;;6.00;99.90;;;;;;4946744;28;20434;-62
2022/01/16 09:13:11;;;;;;;52.03;28.13;;;6.10;99.90;;;;;;4951314;28;20552;-64
2022/01/16 09:15:39;;;;;;;53.42;29.35;;;6.10;99.90;;;;;;4952255;28;20052;-64
2022/01/16 09:18:06;;;;;;;48.92;28.50;;;6.10;99.90;;;;;;4925099;28;20199;-64
2022/01/16 09:20:32;;;;;;;49.38;29.08;;;6.10;99.90;;;;;;4941646;28;20062;-63
2022/01/16 09:22:58;;;;;;;52.83;27.23;;;6.20;99.90;;;;;;4939148;28;20038;-63
2022/01/16 09:25:24;;;;;;;46.90;28.85;;;6.20;99.90;;;;;;5024223;28;20039;-62
2022/01/16 09:27:51;;;;;;;55.03;28.25;;;6.20;99.90;;;;;;4951468;28;20137;-64
2022/01/16 09:30:18;;;;;;;50.50;27.40;;;6.30;99.90;;;;;;4946068;28;21824;-64
2022/01/16 09:32:43;;;;;;;48.40;27.05;;;6.30;99.90;;;;;;4932842;28;20043;-64
2022/01/16 09:35:11;;;;;;;55.03;28.73;;;6.20;99.90;;;;;;4956178;28;20475;-63
2022/01/16 09:37:37;;;;;;;53.33;28.38;;;6.30;99.90;;;;;;4954220;28;22514;-64
2022/01/16 09:40:05;;;;;;;42.00;25.92;;;6.30;99.90;;;;;;4955197;28;20042;-63
2022/01/16 09:42:31;;;;;;;54.72;25.70;;;6.30;99.90;;;;;;4950827;28;20188;-63
2022/01/16 09:44:57;;;;;;;41.60;25.23;;;6.30;99.90;;;;;;4946935;28;20043;-65
2022/01/16 09:47:23;;;;;;;51.17;26.58;;;6.30;99.90;;;;;;4956750;28;20035;-65
2022/01/16 09:49:49;;;;;;;54.22;24.95;;;6.40;99.90;;;;;;5030169;28;20035;-66
2022/01/16 09:52:16;;;;;;;44.25;25.50;;;6.40;99.90;;;;;;4943246;28;20043;-65
2022/01/16 09:54:41;;;;;;;42.53;24.83;;;6.40;99.90;;;;;;4948589;28;20505;-66
2022/01/16 09:57:09;;;;;;;41.88;23.80;;;6.40;99.90;;;;;;4952109;28;20051;-67
2022/01/16 09:59:35;;;;;;;43.03;23.08;;;6.40;99.90;;;;;;4953514;28;20137;-66
2022/01/16 10:02:01;;;;;;;44.80;23.10;;;6.50;99.90;;;;;;4922508;28;20125;-64
2022/01/16 10:04:39;;;;;;;46.78;21.90;;;6.50;99.90;;;;;;4910399;28;20173;-65
2022/01/16 10:07:08;;;;;;;41.92;22.13;;;6.60;99.90;;;;;;4948516;28;20065;-65
2022/01/16 10:09:39;;;;;;;41.83;21.02;;;6.60;99.90;;;;;;4953799;28;20049;-67
2022/01/16 10:12:18;;;;;;;51.25;20.23;;;6.60;99.90;;;;;;4977075;28;20642;-64
2022/01/16 10:14:50;;;;;;;37.83;19.20;;;6.60;99.90;;;;;;4961126;28;20043;-65
2022/01/16 10:17:22;;;;;;;35.10;18.05;;;6.60;99.90;;;;;;4941848;28;20038;-63
2022/01/16 10:20:04;;;;;;;37.28;18.42;;;6.60;99.90;;;;;;4942024;28;20042;-66
2022/01/16 10:22:42;;;;;;;45.78;19.20;;;6.70;99.90;;;;;;4959115;28;20042;-64
2022/01/16 10:25:09;;;;;;;33.53;16.50;;;6.70;99.90;;;;;;4942435;28;20042;-63
2022/01/16 10:27:38;;;;;;;45.00;17.98;;;6.70;99.90;;;;;;5040140;28;20043;-67
2022/01/16 10:30:07;;;;;;;35.80;16.42;;;6.70;99.90;;;;;;4948670;28;20057;-63
2022/01/16 10:32:37;;;;;;;34.65;15.55;;;6.70;99.90;;;;;;4938884;28;20042;-63
2022/01/16 10:35:07;;;;;;;30.73;14.88;;;6.80;99.90;;;;;;4948514;28;20208;-64
2022/01/16 10:37:33;;;;;;;35.90;15.38;;;6.80;99.90;;;;;;4940447;28;20042;-64
2022/01/16 10:40:03;;;;;;;29.30;15.35;;;6.70;99.90;;;;;;4934967;28;20043;-66
2022/01/16 10:42:31;;;;;;;32.25;15.32;;;6.80;99.90;;;;;;5035992;28;20492;-65
2022/01/16 10:45:03;;;;;;;31.65;15.25;;;6.80;99.90;;;;;;4935481;28;20065;-65
2022/01/16 10:47:38;;;;;;;30.52;12.63;;;6.80;99.90;;;;;;4964520;28;20607;-64
2022/01/16 10:50:07;;;;;;;38.80;14.20;;;6.80;99.90;;;;;;4973517;28;20095;-65
2022/01/16 10:52:44;;;;;;;25.90;12.15;;;6.90;99.90;;;;;;4952717;28;20609;-65
2022/01/16 10:55:10;;;;;;;25.27;11.10;;;6.90;99.90;;;;;;5042393;28;20432;-64
2022/01/16 10:57:36;;;;;;;35.90;12.77;;;6.90;99.90;;;;;;4974766;28;20049;-64
2022/01/16 11:00:15;;;;;;;28.65;12.70;;;6.90;99.90;;;;;;4963122;28;20101;-65
2022/01/16 11:02:43;;;;;;;28.23;11.32;;;6.90;99.90;;;;;;4957275;28;20110;-65
2022/01/16 11:05:13;;;;;;;29.35;11.68;;;6.90;99.90;;;;;;4948487;28;20151;-65
2022/01/16 11:07:39;;;;;;;24.33;10.77;;;6.90;99.90;;;;;;4966179;28;20042;-64
2022/01/16 11:10:31;;;;;;;22.00;10.15;;;6.90;99.90;;;;;;4962904;28;20428;-64
2022/01/16 11:12:59;;;;;;;23.35;10.38;;;6.90;99.90;;;;;;4947729;28;20046;-64
2022/01/16 11:15:27;;;;;;;25.92;10.55;;;6.90;99.90;;;;;;4948989;28;20521;-64
2022/01/16 11:17:53;;;;;;;26.45;10.65;;;6.90;99.90;;;;;;4934487;28;20092;-66
2022/01/16 11:20:26;;;;;;;25.55;9.98;;;6.90;99.90;;;;;;5025493;28;20574;-65
2022/01/16 11:23:47;;;;;;;27.05;9.95;;;6.90;99.90;;;;;;4982754;28;20046;-68
2022/01/16 11:25:43;;;;;;;19.88;9.50;;;7.00;99.90;;;;;;4954384;28;20046;-64
2022/01/16 11:28:13;;;;;;;26.10;10.13;;;6.90;99.90;;;;;;4963855;28;20592;-64
2022/01/16 11:30:49;;;;;;;22.30;9.50;;;7.00;99.90;;;;;;4937005;28;20472;-65
2022/01/16 11:33:16;;;;;;;18.25;9.95;;;7.00;99.90;;;;;;4945986;28;20129;-64
2022/01/16 11:36:04;;;;;;;27.75;10.52;;;7.00;99.90;;;;;;4948514;28;20042;-64
2022/01/16 11:38:35;;;;;;;21.48;10.32;;;7.00;99.90;;;;;;4943145;28;20855;-66
2022/01/16 11:41:12;;;;;;;27.33;10.25;;;7.10;99.90;;;;;;4959255;28;20026;-65
2022/01/16 11:43:39;;;;;;;19.65;9.32;;;7.10;99.90;;;;;;4954651;28;20163;-65
2022/01/16 11:46:15;;;;;;;23.67;10.32;;;7.10;99.90;;;;;;4945726;28;20795;-65
2022/01/16 11:48:47;;;;;;;23.42;10.48;;;7.10;99.90;;;;;;4955871;28;20046;-67
2022/01/16 11:51:39;;;;;;;25.65;10.20;;;7.10;99.90;;;;;;4959863;28;20425;-64
2022/01/16 11:54:24;;;;;;;22.58;10.38;;;7.10;99.90;;;;;;4955674;28;20550;-64
2022/01/16 11:57:02;;;;;;;23.58;8.57;;;7.20;99.90;;;;;;4954052;28;20397;-65
2022/01/16 11:59:37;;;;;;;19.42;8.48;;;7.10;99.90;;;;;;4988838;28;20233;-64
2022/01/16 12:02:09;;;;;;;24.52;10.05;;;7.20;99.90;;;;;;4948376;28;20078;-65
2022/01/16 12:04:36;;;;;;;19.92;9.38;;;7.20;99.90;;;;;;4950577;28;20049;-67
2022/01/16 12:07:15;;;;;;;25.83;10.77;;;7.20;99.90;;;;;;4950397;28;20054;-65
2022/01/16 12:09:57;;;;;;;19.17;8.90;;;7.20;99.90;;;;;;4942430;28;20046;-64
2022/01/16 12:12:23;;;;;;;18.40;9.27;;;7.20;99.90;;;;;;4964454;28;20044;-66
2022/01/16 12:14:55;;;;;;;29.90;11.63;;;7.30;99.90;;;;;;4942174;28;20051;-64
2022/01/16 12:17:47;;;;;;;18.88;9.30;;;7.20;99.90;;;;;;4927287;28;20394;-64
2022/01/16 12:20:17;;;;;;;22.63;9.35;;;7.20;99.90;;;;;;4969264;28;20390;-66
2022/01/16 12:22:44;;;;;;;22.83;10.13;;;7.20;99.90;;;;;;4935488;28;20296;-65
2022/01/16 12:25:25;;;;;;;24.98;10.52;;;7.30;99.90;;;;;;4934785;28;20042;-64
2022/01/16 12:28:23;;;;;;;26.00;10.45;;;7.20;99.90;;;;;;4969629;28;20174;-64
2022/01/16 12:30:59;;;;;;;25.30;10.52;;;7.30;99.90;;;;;;4941103;28;20045;-65
2022/01/16 12:33:50;;;;;;;24.00;12.13;;;7.30;99.90;;;;;;4958373;28;20178;-64
2022/01/16 12:36:18;;;;;;;24.25;10.32;;;7.30;99.90;;;;;;4953408;28;20062;-65
2022/01/16 12:38:44;;;;;;;18.65;10.90;;;7.30;99.90;;;;;;4946122;28;20498;-64
2022/01/16 12:41:20;;;;;;;20.17;9.30;;;7.30;99.90;;;;;;4964343;28;20046;-66
2022/01/16 12:44:08;;;;;;;18.65;9.60;;;7.30;99.90;;;;;;4960681;28;20038;-63
2022/01/16 12:46:35;;;;;;;20.77;10.77;;;7.30;99.90;;;;;;4988294;28;20031;-65
2022/01/16 12:49:06;;;;;;;22.70;10.60;;;7.30;99.90;;;;;;4957117;28;20035;-67
2022/01/16 12:51:34;;;;;;;25.95;14.27;;;7.30;99.90;;;;;;4960889;28;20057;-65
2022/01/16 12:54:07;;;;;;;24.00;10.20;;;7.30;99.90;;;;;;4956901;28;20046;-66
2022/01/16 12:56:46;;;;;;;20.63;9.95;;;7.30;99.90;;;;;;4940871;28;20063;-64
2022/01/16 12:59:14;;;;;;;21.85;10.40;;;7.30;99.90;;;;;;4945506;28;20110;-64
2022/01/16 13:01:49;;;;;;;25.55;14.23;;;7.20;99.90;;;;;;4939056;28;20050;-64
2022/01/16 13:04:23;;;;;;;24.77;13.05;;;7.30;99.90;;;;;;4940757;28;20054;-66
2022/01/16 13:06:49;;;;;;;27.50;13.88;;;7.20;99.90;;;;;;4930379;28;20074;-63
2022/01/16 13:09:15;;;;;;;21.80;11.52;;;7.20;99.90;;;;;;4939525;28;20559;-63
2022/01/16 13:11:45;;;;;;;25.00;12.80;;;7.20;99.90;;;;;;4956628;28;20058;-64
2022/01/16 13:14:14;;;;;;;24.08;11.50;;;7.30;99.90;;;;;;4967369;28;20496;-63
2022/01/16 13:16:45;;;;;;;24.65;9.63;;;7.20;99.90;;;;;;4946461;28;20129;-67
2022/01/16 13:19:26;;;;;;;19.13;10.40;;;7.20;99.90;;;;;;4953270;28;20042;-63
2022/01/16 13:22:13;;;;;;;19.90;10.70;;;7.30;99.90;;;;;;4950236;28;20104;-64
2022/01/16 13:25:03;;;;;;;24.25;9.10;;;7.30;99.90;;;;;;4952479;28;20580;-64
2022/01/16 13:27:40;;;;;;;23.00;9.93;;;7.30;99.90;;;;;;4949569;28;20070;-63